Date TemperatureHighC TemperatureAvgC TemperatureLowC DewpointHighC DewpointAvgC DewpointLowC HumidityHigh HumidityAvg HumidityLow PressureMaxhPa PressureMinhPa WindSpeedMaxKMH WindSpeedAvgKMH GustSpeedMaxKMH PrecipitationSumCM
2013-12-31 12.1 6.9 2.8 5.6 2.5 0.1 93 75 53 1006 1002 6 2 6 0.00
2014-1-1 16.7 6.2 0.3 10.2 2.1 -0.6 98 79 35 1005 1002 11 2 11 0.00
2014-1-2 12.3 9.4 3.0 11.6 7.4 1.5 98 87 70 1003 998 17 4 17 0.00
2014-1-3 17.7 13.5 11.8 14.8 12.1 10.9 98 92 71 1006 1000 12 3 12 0.00
2014-1-4 15.4 13.9 12.7 13.9 12.4 10.6 98 91 73 1005 994 17 5 17 0.00
2014-1-5 15.2 11.1 7.1 13.1 9.2 5.8 98 88 65 997 986 21 5 21 0.94
2014-1-6 19.3 9.3 3.1 12.1 4.4 1.3 98 76 33 1007 996 18 2 18 0.00
2014-1-7 18.1 9.3 5.2 13.9 7.1 4.8 98 88 52 1011 1006 9 2 9 0.00
2014-1-8 14.4 9.8 5.9 10.7 8.6 5.6 98 92 74 1013 1010 12 2 12 0.00
2014-1-9 14.0 10.6 6.5 10.5 8.6 6.2 98 88 68 1011 1006 9 3 9 0.00
2014-1-10 13.5 11.5 8.0 11.2 9.5 6.9 93 88 81 1007 1004 9 3 9 0.00
2014-1-11 17.0 10.4 5.6 12.7 7.6 5.3 98 84 52 1008 1004 9 2 9 0.00
2014-1-12 19.3 10.8 5.5 12.9 8.2 5.2 98 86 44 1008 1004 9 2 9 0.00
2014-1-13 14.9 9.1 4.0 13.3 8.1 3.7 98 94 78 1006 997 13 2 13 0.00
2014-1-14 13.8 10.4 5.1 12.9 9.0 3.5 98 91 69 998 990 15 3 15 0.84
2014-1-15 18.9 9.4 4.2 11.9 4.4 1.3 98 76 34 999 993 11 2 11 0.00
2014-1-16 14.2 8.8 3.8 10.4 6.3 3.3 98 85 63 1002 998 11 4 11 0.00
2014-1-17 14.2 12.8 11.2 12.8 10.7 8.0 98 87 74 998 993 21 6 21 0.53
2014-1-18 16.0 13.7 12.8 12.8 11.6 8.9 98 88 72 995 988 21 6 21 0.10
2014-1-19 16.7 13.9 9.7 13.4 11.1 7.6 97 83 68 989 983 20 5 20 0.20
2014-1-20 13.7 10.3 8.9 12.7 9.2 6.8 98 93 76 985 983 34 4 37 0.43
2014-1-21 12.9 9.9 8.5 11.8 8.9 7.2 98 94 82 995 983 10 2 10 0.53
2014-1-22 13.3 8.7 4.1 12.1 8.0 3.3 98 96 80 1000 994 10 2 10 2.64
2014-1-23 11.3 8.0 2.9 8.9 6.8 2.6 98 93 78 1001 995 12 3 12 0.84
2014-1-24 12.7 8.6 5.9 11.8 4.9 -2.3 98 80 54 995 986 2 1 3 0.23
2014-1-25 15.2 7.4 1.6 -1.0 -3.7 -7.0 69 48 25 995 987 19 3 19 0.00
2014-1-26 17.0 6.6 0.7 3.8 -3.6 -9.6 78 52 22 995 990 24 3 24 0.00
2014-1-27 11.7 7.0 2.6 9.7 2.1 -7.2 98 75 37 991 978 19 4 19 0.74
2014-1-28 14.7 4.9 0.0 7.8 -0.2 -3.8 98 74 31 984 978 16 2 16 0.00
2014-1-29 10.7 5.7 -0.5 8.2 1.3 -4.7 98 76 39 990 983 23 5 23 0.20
2014-1-30 12.5 10.4 8.5 11.3 9.9 8.2 98 97 87 989 986 20 5 20 9.14
2014-1-31 10.8 9.7 8.7 10.5 9.4 8.4 98 98 98 995 987 13 2 13 1.50
2014-2-1 13.8 11.2 8.3 11.0 9.9 8.0 98 92 76 994 989 21 4 21 0.23
2014-2-2 13.3 9.8 6.9 11.6 8.6 6.6 98 93 70 993 990 3 1 5 0.10
2014-2-3 13.9 10.1 7.3 12.0 8.8 6.2 98 92 76 997 990 3 1 5 0.10
2014-2-4 13.9 9.7 7.7 12.7 9.1 7.3 98 96 86 1000 996 3 1 5 0.74
2014-2-5 13.4 9.2 7.0 9.9 7.3 2.9 98 89 53 1000 989 3 1 5 2.34
2014-2-6 17.8 10.0 5.1 11.4 5.2 1.6 98 75 43 1002 989 3 1 5 0.10
2014-2-7 17.5 10.7 5.3 12.5 8.1 3.9 98 85 45 1001 994 3 1 5 0.43
2014-2-8 18.4 11.3 5.8 12.2 6.9 2.8 98 77 43 997 990 3 1 5 1.02
2014-2-9 16.0 11.6 6.4 12.0 4.6 -1.4 98 65 36 995 985 3 1 5 0.53
2014-2-10 13.3 10.6 7.4 13.0 9.2 2.2 98 91 67 996 982 3 1 5 2.11
2014-2-11 14.7 11.4 7.7 11.4 8.6 6.9 97 84 67 990 986 10 2 10 0.20
2014-2-12 19.2 9.8 3.6 10.9 5.1 0.6 98 77 34 998 988 13 2 13 0.63
2014-2-13 15.8 10.2 3.4 10.9 6.6 3.0 98 80 46 998 991 13 4 13 3.71
2014-2-14 20.6 12.7 7.9 9.4 4.1 0.8 93 58 30 1001 990 26 4 26 0.00
2014-2-15 20.4 14.3 8.3 12.7 7.2 2.7 92 65 35 1001 998 19 5 19 0.00
2014-2-16 19.5 14.8 13.4 13.1 11.8 8.3 95 83 50 1002 998 19 5 19 0.00
2014-2-17 19.4 13.8 10.4 13.2 10.7 7.4 98 83 50 1003 997 13 3 13 0.00
2014-2-18 19.2 15.2 9.8 13.0 6.7 0.4 98 62 34 1004 998 22 3 22 0.00
2014-2-19 17.0 14.4 11.2 13.2 9.3 0.7 98 75 35 999 994 20 4 20 1.35
2014-2-20 19.6 13.1 7.8 13.9 8.5 2.1 98 77 36 998 994 15 4 15 0.63
2014-2-21 19.6 11.2 4.0 11.7 5.6 2.6 98 73 36 998 996 17 3 17 0.00
2014-2-22 17.2 10.1 4.7 10.1 4.4 0.6 98 72 37 1003 994 22 4 22 0.33
2014-2-23 19.9 9.6 3.6 9.1 0.6 -6.6 98 60 25 1006 1002 13 3 13 0.00
2014-2-24 19.7 9.0 1.7 2.5 -1.7 -5.9 88 52 24 1006 1002 15 4 15 0.00
2014-2-25 18.2 8.9 2.6 5.7 2.0 -0.3 91 67 31 1005 1002 19 4 19 0.00
2014-2-26 12.4 9.4 7.1 11.4 7.7 5.3 98 89 76 1006 1002 17 4 17 0.84
2014-2-27 18.7 10.0 5.6 11.6 4.3 -1.5 97 72 27 1006 1002 11 2 11 0.00
2014-2-28 18.3 9.4 5.9 9.5 5.1 -2.3 98 77 31 1002 986 15 4 15 0.74
2014-3-1 8.8 6.6 4.2 7.2 6.2 3.9 98 97 88 986 978 24 3 24 5.08
2014-3-2 17.7 8.4 2.9 8.1 2.4 -3.0 98 72 28 986 977 11 2 11 0.00
2014-3-3 16.7 8.2 1.9 7.6 3.7 0.3 98 77 35 986 973 16 4 16 0.63
2014-3-4 12.1 7.8 5.9 8.6 5.8 3.8 97 88 68 983 970 26 4 26 0.94
2014-3-5 18.0 10.6 5.5 7.7 1.8 -1.2 87 58 33 998 983 21 4 21 0.00
2014-3-6 17.3 10.3 5.6 3.2 -0.5 -3.3 76 49 28 1004 997 21 4 21 0.00
2014-3-7 24.5 13.5 6.7 2.9 0.2 -3.1 69 43 21 1006 1002 24 3 24 0.00
2014-3-8 19.9 12.7 6.7 2.7 -1.6 -5.1 70 40 22 1011 1004 26 7 26 0.00
2014-3-9 19.9 12.9 7.1 -1.4 -3.3 -5.6 48 33 23 1011 1006 26 6 26 0.00
2014-3-10 18.7 11.0 4.3 0.3 -2.4 -5.5 61 40 26 1007 1000 22 6 22 0.00
2014-3-11 18.4 11.7 7.7 0.4 -3.0 -6.6 49 37 24 1009 1002 22 6 22 0.00
2014-3-12 21.0 12.1 3.8 1.6 -3.8 -7.9 80 36 17 1013 1008 22 5 22 0.00
2014-3-13 22.5 11.1 2.7 5.3 0.3 -1.8 82 54 22 1012 1008 12 3 12 0.00
2014-3-14 22.7 12.2 3.9 7.8 1.8 -1.8 84 55 22 1010 1006 10 2 10 0.00
2014-3-15 22.4 11.6 2.5 8.6 2.5 -1.6 87 61 22 1007 999 17 3 17 0.00
2014-3-16 23.3 12.9 4.6 9.7 3.4 0.2 86 58 25 1003 997 14 3 14 0.00
2014-3-17 25.6 13.7 4.1 14.4 3.9 -1.5 97 59 22 1007 1002 13 3 13 0.00
2014-3-18 21.8 14.3 8.7 11.4 9.0 4.6 97 74 36 1007 1004 14 3 14 0.00
2014-3-19 22.7 13.9 7.8 10.8 8.0 4.0 94 71 33 1008 1004 13 3 13 0.00
2014-3-20 23.5 14.1 6.5 14.4 7.7 4.6 98 70 31 1009 1006 13 2 13 0.00
2014-3-21 21.0 13.1 6.3 14.9 8.5 5.2 98 77 39 1007 1004 13 2 13 0.00
2014-3-22 19.5 14.5 11.2 14.9 10.1 5.1 98 77 43 1005 995 13 3 13 0.00
2014-3-23 18.7 12.6 5.9 13.1 5.8 -3.3 98 67 27 995 987 30 6 30 1.17
2014-3-24 17.9 9.4 3.6 9.9 1.6 -4.0 96 62 27 995 988 17 3 17 0.63
2014-3-25 15.0 8.2 2.8 5.7 1.8 -2.1 93 68 33 995 988 17 4 17 0.63
2014-3-26 16.6 10.1 5.6 5.7 2.9 0.4 94 64 40 991 988 26 5 26 0.41
2014-3-27 15.2 11.7 9.8 3.8 1.7 0.2 60 50 44 991 984 35 9 35 0.00
2014-3-28 23.8 14.3 7.5 5.3 1.8 -1.6 76 46 22 1003 991 21 5 21 0.00
2014-3-29 24.1 13.7 6.6 6.2 1.3 -1.2 76 48 22 1006 1002 16 4 16 0.00
2014-3-30 23.2 14.7 8.0 8.0 4.3 -0.1 81 56 23 1005 1000 15 3 15 0.00
2014-3-31 22.7 13.7 5.8 11.9 3.3 -1.1 94 57 23 1002 999 19 3 19 0.00
2014-4-1 21.2 12.3 5.0 12.3 4.8 2.5 96 65 33 1002 1000 16 3 16 0.00
2014-4-2 22.8 13.2 6.6 11.9 7.4 3.7 98 72 32 1002 998 13 4 13 0.00
2014-4-3 22.3 15.2 10.3 9.5 2.0 -2.1 87 43 26 999 989 15 4 15 0.00
2014-4-4 21.9 15.7 11.6 13.9 6.1 1.2 90 56 33 989 983 26 5 26 0.53
2014-4-5 20.1 13.3 9.4 13.3 8.9 2.8 95 77 35 998 989 9 2 9 0.20
2014-4-6 24.1 16.1 9.1 9.3 6.1 2.1 91 56 28 1002 996 11 3 11 0.00
2014-4-7 27.8 17.8 8.9 13.4 6.0 1.5 91 51 24 1006 1002 15 3 15 0.00
2014-4-8 25.8 17.0 8.9 13.4 6.1 2.9 87 53 24 1006 1002 11 2 11 0.00
2014-4-9 25.7 17.1 11.1 13.4 8.1 1.9 94 60 30 1004 1000 17 3 17 0.00
2014-4-10 23.4 15.7 8.9 10.7 2.9 -2.3 91 47 21 1005 1002 17 3 17 0.00
2014-4-11 24.7 15.7 8.8 14.7 8.3 5.3 98 68 32 1003 1000 14 3 14 0.00
2014-4-12 24.1 15.6 9.6 13.4 9.1 5.1 96 70 33 1002 1000 16 3 16 0.00
2014-4-13 24.2 14.8 9.3 14.5 9.4 5.4 97 74 34 1002 1000 14 2 14 0.00
2014-4-14 23.8 15.6 7.5 15.9 8.5 5.3 98 69 32 1004 998 17 3 17 0.00
2014-4-15 26.1 14.8 6.0 14.3 4.3 -7.9 98 57 23 1001 994 30 4 30 0.20
2014-4-16 21.5 13.1 6.0 -1.9 -5.7 -11.3 48 28 17 1005 1000 20 6 20 0.00
2014-4-17 23.5 13.1 2.9 2.1 -3.6 -8.1 60 34 16 1004 998 22 4 22 0.00
2014-4-18 23.7 14.6 6.3 11.6 3.9 0.2 89 53 26 998 988 19 3 19 0.00
2014-4-19 22.7 14.1 11.3 14.7 8.2 1.6 96 71 26 989 984 20 5 20 0.43
2014-4-20 24.5 14.8 6.8 13.7 5.9 1.7 97 61 26 992 988 17 3 17 0.00
2014-4-21 24.8 15.8 10.9 12.3 9.0 5.9 93 67 32 994 988 17 4 17 0.00
2014-4-22 24.2 16.2 11.0 15.1 9.8 5.3 98 70 33 1000 994 11 2 11 0.00
2014-4-23 28.5 17.9 10.8 15.6 8.6 1.2 98 63 20 1001 998 13 3 13 0.00
2014-4-24 29.1 20.1 12.5 13.9 7.1 3.8 91 47 22 1001 998 20 3 20 0.00
2014-4-25 28.0 18.2 8.6 13.2 7.1 1.9 92 55 22 1000 993 12 3 12 0.00
2014-4-26 26.5 18.2 11.4 15.8 9.5 5.4 95 61 32 996 993 19 3 19 0.00
2014-4-27 17.5 13.6 10.6 12.7 9.2 5.4 94 76 50 995 988 15 3 15 1.37
2014-4-28 19.7 13.9 9.8 15.4 8.8 2.6 98 75 35 992 988 17 2 17 1.27
2014-4-29 19.8 14.4 9.2 13.6 7.9 4.9 96 68 40 996 990 13 2 13 0.10
2014-4-30 24.9 16.1 8.2 15.0 7.4 3.7 96 61 31 996 991 17 3 17 0.10
2014-5-1 25.8 15.9 9.0 12.8 7.6 3.6 95 63 28 996 993 17 2 17 0.00
2014-5-2 19.2 12.6 8.7 12.2 8.9 6.7 95 80 48 995 990 26 2 26 0.51
2014-5-3 20.8 14.2 10.1 14.0 9.0 4.3 96 74 37 992 988 19 2 19 0.33
2014-5-4 24.5 16.8 10.3 8.7 3.0 -3.0 75 44 23 999 991 15 3 15 0.00
2014-5-5 28.1 17.9 9.7 2.8 -0.3 -3.6 49 31 19 1003 999 17 3 17 0.00
2014-5-6 27.2 17.5 7.0 10.0 3.3 -0.1 85 45 20 1006 1002 16 2 16 0.00
2014-5-7 24.9 15.9 9.4 10.4 6.4 2.3 82 57 27 1005 1002 17 2 17 0.00
2014-5-8 27.7 19.4 12.9 14.9 8.6 4.2 90 55 26 1004 1001 17 2 17 0.00
2014-5-9 29.7 19.4 9.5 14.0 6.1 2.1 94 49 20 1003 1001 19 3 19 0.00
2014-5-10 29.4 19.5 9.9 13.1 6.9 2.9 83 50 21 1002 999 12 2 12 0.00
2014-5-11 24.9 19.2 14.0 16.1 11.6 8.1 94 65 36 1002 995 17 3 17 0.00
2014-5-12 26.1 18.7 11.0 13.0 4.6 -0.4 83 43 20 1000 996 20 3 20 0.00
2014-5-13 26.7 17.3 9.9 8.6 3.9 -0.3 79 44 21 998 994 21 3 21 0.00
2014-5-14 28.0 18.4 9.8 7.4 1.1 -3.6 75 36 15 1003 996 22 3 22 0.00
2014-5-15 28.3 19.0 8.5 4.7 -1.6 -5.1 63 28 14 1002 998 16 2 16 0.00
2014-5-16 26.2 17.6 10.3 9.4 1.0 -3.8 73 36 18 1001 996 22 1 22 0.00
2014-5-17 25.7 18.4 11.0 7.4 2.1 -0.8 75 36 20 1002 998 17 1 17 0.00
2014-5-18 25.7 17.9 10.0 14.6 5.4 -2.4 95 51 18 1002 1000 15 2 15 0.00
2014-5-19 20.4 16.3 13.2 9.8 4.7 1.2 74 48 30 1001 998 13 2 13 0.00
2014-5-20 29.1 19.8 13.8 10.9 7.1 2.9 82 47 21 1005 1000 16 2 16 0.00
2014-5-21 29.3 20.3 11.6 16.1 9.6 6.2 96 57 26 1004 1002 16 3 16 0.00
2014-5-22 28.0 20.7 15.2 13.6 9.2 5.1 85 52 25 1003 999 19 3 19 0.00
2014-5-23 26.4 18.8 13.6 17.0 12.6 6.6 95 71 31 1002 997 19 3 19 0.33
2014-5-24 30.8 20.4 10.1 16.9 6.2 -0.9 98 50 18 1003 1000 17 2 17 0.00
2014-5-25 32.4 21.2 9.7 7.6 2.8 -0.9 66 35 15 1002 998 17 3 17 0.00
2014-5-26 29.8 21.4 12.0 10.0 4.8 0.2 70 36 20 1001 998 17 3 17 0.00
2014-5-27 25.9 17.9 12.3 13.5 7.9 4.3 84 56 30 1001 998 16 3 16 0.41
2014-5-28 27.4 19.5 12.6 10.4 5.8 0.9 78 46 21 999 996 19 3 19 0.00
2014-5-29 27.1 19.0 11.0 14.4 6.5 2.8 86 49 24 998 996 23 3 23 0.00
2014-5-30 28.1 19.8 10.4 14.9 7.4 2.8 93 51 22 999 996 20 3 20 0.00
2014-5-31 27.9 18.4 13.8 13.8 7.8 2.9 81 53 27 1001 998 19 2 19 0.00
2014-6-1 28.3 19.7 10.1 4.3 1.3 -1.8 54 32 19 1002 999 22 3 22 0.00
2014-6-2 32.4 21.0 10.4 5.9 1.4 -2.3 58 31 15 1001 997 20 3 20 0.00
2014-6-3 30.9 21.2 11.5 11.3 4.4 -0.9 68 38 18 999 996 24 2 24 0.10
2014-6-4 30.4 20.8 10.5 13.6 7.9 1.4 90 52 18 999 996 21 3 21 0.00
2014-6-5 32.9 21.8 14.7 18.2 11.1 3.6 94 57 18 1003 998 20 3 20 0.00
2014-6-6 31.2 22.3 14.2 15.4 10.1 4.4 91 52 20 1005 1003 15 3 15 0.00
2014-6-7 34.2 24.6 15.0 10.3 6.2 1.4 71 37 14 1004 1002 15 3 15 0.00
2014-6-8 38.6 27.3 14.5 12.1 8.6 5.8 69 37 16 1004 1002 17 2 17 0.00
2014-6-9 39.3 28.4 18.3 11.4 5.9 2.7 55 28 12 1004 1001 15 3 15 0.00
2014-6-10 37.9 28.4 17.9 13.4 6.6 1.4 65 30 13 1003 1001 17 3 17 0.00
2014-6-11 39.4 28.6 17.6 9.5 6.4 3.2 50 27 14 1006 1002 15 2 15 0.00
2014-6-12 37.8 28.3 17.4 12.0 8.1 5.7 58 31 17 1005 1000 19 2 19 0.00
2014-6-13 37.4 29.7 20.1 23.1 9.4 6.6 57 32 16 1003 998 17 4 17 0.00
2014-6-14 37.7 24.9 19.4 16.9 11.3 7.6 67 45 17 998 992 19 2 19 0.20
2014-6-15 24.2 19.8 17.5 17.1 12.0 7.3 93 63 42 996 993 30 6 30 1.09
2014-6-16 29.0 20.1 15.6 14.4 9.4 4.9 87 53 28 997 994 20 4 20 0.10
2014-6-17 29.7 21.1 12.8 16.9 9.4 4.4 94 53 23 997 994 17 3 17 0.00
2014-6-18 31.6 21.3 14.4 12.2 7.4 3.1 77 44 19 1000 996 15 2 15 0.00
2014-6-19 32.3 22.3 13.7 16.1 9.7 3.5 88 51 19 1001 998 21 3 21 0.00
2014-6-20 31.2 22.8 14.1 17.3 9.1 2.1 91 49 19 1001 998 17 3 17 0.00
2014-6-21 32.9 24.5 16.2 17.8 11.3 3.2 89 51 21 1003 999 15 3 15 0.00
2014-6-22 32.3 24.7 17.8 19.9 13.0 7.0 95 55 28 1007 1002 24 4 24 0.00
2014-6-23 33.9 24.7 18.3 15.2 10.5 4.0 75 45 18 1008 1002 17 3 17 0.00
2014-6-24 33.0 25.5 19.0 17.7 9.9 6.0 74 40 22 1003 995 17 4 17 0.00
2014-6-25 31.3 24.2 19.7 21.4 16.0 9.9 89 63 30 997 992 19 3 19 0.00
2014-6-26 31.2 22.3 17.1 18.8 13.4 7.9 90 61 26 999 996 17 2 17 2.03
2014-6-27 32.4 23.6 15.9 19.9 13.2 8.7 95 59 25 1005 998 17 3 17 0.00
2014-6-28 33.5 25.2 16.4 19.2 9.9 2.9 95 48 17 1005 1001 15 3 15 0.00
2014-6-29 32.1 24.6 18.9 19.6 13.2 3.8 94 57 18 1002 992 19 4 19 0.20
2014-6-30 31.3 23.3 17.2 18.1 12.1 4.9 97 55 23 1001 992 21 4 21 0.20
2014-7-1 34.1 24.3 14.5 13.3 8.4 4.4 73 41 17 1004 1000 17 3 17 0.00
2014-7-2 31.0 23.3 16.1 17.3 12.1 8.2 87 54 27 1007 1002 17 3 17 0.00
2014-7-3 36.3 25.0 16.1 17.4 10.6 3.3 92 49 16 1009 1006 17 2 17 0.00
2014-7-4 35.6 26.6 19.5 14.7 10.4 3.6 69 40 19 1007 998 19 3 19 0.00
2014-7-5 32.5 25.5 20.1 18.5 13.1 8.1 83 50 23 1001 998 20 3 20 0.00
2014-7-6 34.5 26.3 18.3 17.8 12.1 6.6 85 48 19 1002 1000 21 3 21 0.00
2014-7-7 33.0 24.4 17.3 17.1 11.3 5.6 85 49 19 1002 998 17 3 17 0.10
2014-7-8 30.9 23.8 16.5 19.1 9.9 2.4 93 48 20 1001 994 28 4 28 0.23
2014-7-9 30.1 23.7 18.2 9.4 5.5 1.6 51 32 20 995 991 28 5 28 0.00
2014-7-10 18.4 16.4 14.2 12.8 8.5 6.4 90 61 46 992 989 22 3 22 1.50
2014-7-14 28.1 21.6 16.7 19.3 13.3 8.5 90 62 33 1002 991 19 2 19 2.11
2014-7-15 35.1 24.4 14.6 19.3 11.8 6.3 96 53 19 1003 1000 11 2 11 0.00
2014-7-16 37.6 27.4 18.3 14.3 10.1 6.2 71 39 17 1004 1001 15 2 15 0.00
2014-7-17 36.9 27.3 17.3 16.0 10.7 6.3 78 40 19 1004 1002 13 2 13 0.00
2014-7-18 37.7 27.8 17.5 16.0 9.3 3.4 77 37 16 1004 1000 17 2 17 0.00
2014-7-19 38.4 28.1 17.6 12.7 7.1 -0.1 65 31 14 1003 1000 13 2 13 0.00
2014-7-20 36.7 26.6 19.4 13.0 8.7 2.0 52 35 13 1001 996 19 3 19 0.00
2014-7-21 31.0 24.4 17.6 20.3 13.8 8.2 92 55 28 997 993 20 4 20 1.07
2014-7-22 33.2 23.2 17.8 19.4 14.1 7.5 95 61 22 996 991 19 3 19 0.74
2014-7-23 33.9 24.5 18.8 19.6 14.6 6.4 86 59 20 998 994 20 1 20 0.43
2014-7-24 32.6 24.9 18.7 19.6 14.4 9.1 90 57 28 999 995 13 2 13 0.00
2014-7-25 32.0 24.6 17.9 18.8 15.2 11.3 91 60 30 1000 998 17 3 17 0.00
2014-7-26 32.5 24.0 17.9 18.9 15.9 10.0 98 66 28 999 995 24 3 24 2.44
2014-7-27 31.2 22.1 17.5 25.2 18.4 13.3 98 82 38 998 996 17 1 17 2.36
2014-7-28 32.9 24.6 17.0 21.7 14.6 8.4 98 60 27 999 996 14 2 14 0.00
2014-7-29 27.5 22.2 18.9 22.6 17.2 12.2 97 75 42 997 991 17 2 17 0.41
2014-7-30 20.4 17.3 13.9 19.5 16.7 13.1 98 96 84 995 989 24 2 24 5.13
2014-7-31 30.9 22.9 14.9 23.1 15.9 11.7 98 70 34 997 995 20 2 20 0.00
2014-8-1 34.2 25.9 18.2 18.4 14.4 10.5 92 55 25 998 995 11 2 11 0.00
2014-8-2 34.2 25.6 16.5 19.6 12.7 5.8 96 53 18 998 996 17 2 17 0.00
2014-8-3 31.2 24.8 20.1 21.0 16.5 10.8 89 63 31 1000 996 22 3 22 0.00
2014-8-4 34.1 25.7 18.7 22.0 15.2 8.9 97 59 25 1002 1000 20 2 20 0.10
2014-8-5 34.1 25.0 17.7 18.8 14.2 9.3 92 57 24 1001 998 19 3 19 0.00
2014-8-6 36.6 26.4 17.1 19.3 11.4 4.9 91 48 16 999 997 17 2 17 0.00
2014-8-7 35.5 25.8 16.3 15.0 9.8 5.9 72 42 17 999 997 15 2 15 0.00
2014-8-8 36.3 26.1 17.1 18.2 12.5 5.5 83 51 17 1001 998 13 2 13 0.00
2014-8-9 33.0 25.3 19.1 22.1 16.4 10.5 95 63 28 1003 1000 17 3 17 0.00
2014-8-10 33.9 26.1 19.4 21.2 15.3 4.9 96 59 18 1003 1000 13 3 13 0.00
2014-8-11 35.7 26.4 19.9 20.6 17.1 8.3 94 63 20 1001 998 17 3 17 0.00
2014-8-12 33.0 26.6 22.2 22.0 19.3 15.2 95 68 36 1000 998 19 3 19 0.00
2014-8-13 31.8 26.6 23.0 22.6 19.1 15.4 89 66 40 999 994 19 4 19 0.00
2014-8-14 31.7 25.2 19.1 21.4 9.6 2.8 88 43 18 999 994 25 4 25 0.00
2014-8-15 30.7 22.7 15.9 13.6 7.9 2.0 76 43 20 1000 997 20 3 20 0.00
2014-8-16 31.6 21.7 15.3 13.9 8.8 4.2 72 47 21 1001 998 19 3 19 0.10
2014-8-17 34.1 22.6 13.5 12.2 6.1 2.6 72 40 16 1003 999 21 2 21 0.00
2014-8-18 32.4 22.2 12.6 14.7 7.3 4.3 77 43 19 1001 998 17 3 17 0.00
2014-8-19 31.2 23.3 17.8 18.5 14.0 7.5 88 61 25 1000 997 16 3 16 0.00
2014-8-20 33.2 25.2 20.6 21.5 16.9 10.9 93 65 28 1000 998 21 3 21 0.00
2014-8-21 34.2 24.8 18.2 21.9 12.6 5.7 94 54 20 1002 998 19 2 19 0.00
2014-8-22 32.2 23.2 14.2 15.4 9.2 4.8 73 45 20 1002 999 15 2 15 0.00
2014-8-23 31.1 22.1 18.3 19.4 13.1 7.8 80 59 25 1000 998 17 2 17 0.10
2014-8-24 31.8 22.9 17.0 17.2 11.5 7.7 82 52 23 1001 998 17 2 17 0.00
2014-8-25 33.6 23.1 15.2 18.0 10.3 3.1 90 50 18 1003 1000 21 2 21 0.00
2014-8-26 32.6 23.8 16.7 19.1 13.8 9.8 89 59 27 1002 998 15 3 15 0.00
2014-8-27 35.3 25.8 19.5 21.9 15.4 6.7 93 59 21 999 996 17 3 17 0.00
2014-8-28 38.0 25.7 16.6 18.7 11.4 5.1 87 48 16 1001 998 19 2 19 0.00
2014-8-29 36.4 26.8 17.4 16.4 9.9 6.2 75 39 17 1002 1000 17 2 17 0.00
2014-8-30 35.9 25.2 16.9 15.9 10.1 5.3 79 45 17 1002 998 15 2 15 0.00
2014-8-31 32.9 24.8 18.7 18.1 13.7 10.4 84 55 27 1000 994 15 2 15 0.00
2014-9-1 28.1 21.1 15.4 19.6 8.9 0.3 94 53 20 994 989 32 5 32 0.53
2014-9-2 31.2 21.9 14.5 7.5 4.6 1.6 54 35 18 996 992 21 4 21 0.00
2014-9-3 29.2 20.1 14.4 11.8 8.9 6.3 72 51 26 997 994 15 2 15 0.00
2014-9-4 30.5 21.9 15.3 14.3 11.1 7.7 83 53 28 998 996 15 2 15 0.00
2014-9-5 31.5 23.6 17.7 16.6 11.6 7.8 72 50 25 998 995 15 2 15 0.00
2014-9-6 33.4 24.3 17.7 15.8 11.2 5.6 76 48 19 998 994 15 2 15 0.00
2014-9-7 34.8 23.6 15.8 19.3 12.6 5.5 92 58 18 1000 997 20 2 20 0.00
2014-9-8 33.2 23.8 17.2 21.2 15.0 10.3 94 64 27 1004 1000 17 2 17 0.00
2014-9-9 32.7 23.1 16.6 20.1 15.4 10.4 95 68 29 1003 1000 13 2 13 0.00
2014-9-10 30.8 21.9 18.0 20.8 16.9 9.5 97 77 33 1002 996 19 3 19 0.30
2014-9-11 30.0 20.9 16.0 20.2 14.3 8.3 98 70 30 997 993 22 2 22 1.24
2014-9-12 25.4 17.4 12.8 19.3 14.7 11.1 98 86 44 1000 992 13 2 13 3.30
2014-9-13 28.2 19.2 11.5 17.2 9.8 4.3 98 63 25 1001 998 17 2 17 0.00
2014-9-14 30.6 20.7 13.5 18.2 10.9 4.6 96 61 22 1001 998 15 2 15 0.00
2014-9-15 30.7 20.1 13.3 14.8 11.0 7.5 86 61 24 1002 999 11 2 11 0.20
2014-9-16 31.0 21.3 15.5 18.4 13.0 7.8 88 64 26 1001 998 14 1 14 0.23
2014-9-17 31.5 21.7 16.1 16.1 12.6 8.0 87 62 25 1001 998 13 2 13 0.00
2014-9-18 30.0 22.5 17.9 17.2 13.9 8.9 88 62 30 1002 998 13 2 14 0.00
2014-9-19 30.5 24.3 20.6 22.4 15.5 8.7 94 60 41 1004 1000 16 3 16 0.00
2014-9-20 32.3 25.7 20.9 24.4 20.6 12.8 98 77 34 1005 1001 15 2 15 0.10
2014-9-21 31.6 23.3 19.2 22.4 18.3 10.8 98 78 29 1003 999 11 2 11 0.00
2014-9-22 29.0 22.0 18.0 21.8 17.4 11.4 98 79 37 1000 994 16 2 16 0.00
2014-9-23 28.5 20.3 15.1 17.4 4.4 -3.2 94 43 17 1001 995 20 4 20 0.20
2014-9-24 22.4 17.4 14.2 14.6 7.0 -3.3 91 53 27 1002 998 11 2 11 0.00
2014-9-25 28.4 19.2 14.8 16.3 12.8 7.4 96 70 31 1003 998 12 2 12 0.00
2014-9-26 30.6 20.5 14.7 11.4 4.4 0.7 73 39 18 1007 1002 28 3 28 0.00
2014-9-27 32.6 20.8 12.4 11.7 7.2 2.3 74 48 15 1011 1006 10 1 10 0.00
2014-9-28 32.8 22.3 15.9 14.0 6.6 2.9 79 40 18 1012 1009 15 2 15 0.00
2014-9-29 29.6 20.1 13.8 13.0 10.3 7.3 84 57 27 1014 1010 17 2 17 0.00
2014-9-30 27.2 19.4 14.4 19.2 13.5 8.1 98 72 33 1012 1010 15 2 15 0.00
2014-10-1 24.6 18.8 15.3 19.9 17.1 15.0 98 90 62 1011 1006 13 2 13 1.40
2014-10-2 29.5 20.2 14.6 22.5 11.8 5.4 98 66 24 1008 1006 17 2 17 0.00
2014-10-3 28.2 20.9 16.0 10.1 7.1 3.3 65 43 23 1007 1002 24 4 24 0.00
2014-10-4 29.1 20.1 15.8 11.2 7.2 3.8 68 45 22 1003 998 13 3 13 0.00
2014-10-5 28.9 18.9 12.2 10.4 7.8 2.4 79 52 22 1001 998 17 2 17 0.00
2014-10-6 27.8 18.8 12.9 11.6 8.4 5.1 82 55 26 1001 997 15 2 15 0.00
2014-10-7 27.5 18.9 12.4 17.1 12.0 7.9 90 68 34 1003 1000 12 3 12 0.00
2014-10-8 27.5 21.3 18.5 18.9 16.3 10.7 97 77 37 1005 1002 15 4 15 0.00
2014-10-9 27.5 21.8 19.2 18.7 17.1 13.5 91 76 45 1004 1002 17 4 17 0.00
2014-10-10 28.6 22.1 20.3 18.9 17.2 13.3 87 74 43 1005 1002 14 4 14 0.00
2014-10-11 27.2 22.4 18.7 19.8 18.1 14.4 94 78 49 1004 1000 19 4 19 0.41
2014-10-12 28.4 21.8 17.3 21.6 18.7 15.7 98 85 51 1004 1001 20 3 20 1.75
2014-10-13 24.9 21.8 18.4 20.2 18.9 15.4 96 84 71 1002 997 17 4 17 0.00
2014-10-14 27.5 20.8 17.5 20.6 16.4 12.2 98 78 43 1000 994 14 3 14 0.00
2014-10-15 29.0 21.2 18.7 21.6 17.6 14.2 98 81 46 998 992 13 2 13 0.43
2014-10-16 28.1 21.9 18.5 20.8 15.8 9.6 98 72 34 1003 996 11 2 11 0.00
2014-10-17 29.2 21.8 18.4 21.7 18.1 13.9 98 82 42 1006 1001 15 3 15 0.00
2014-10-18 30.0 22.0 17.3 20.6 16.5 11.4 98 75 32 1011 1006 15 2 15 0.00
2014-10-19 29.7 20.3 15.4 22.7 15.6 10.7 98 79 33 1011 1009 11 2 11 0.00
2014-10-20 29.1 18.8 13.6 21.7 14.7 10.1 98 81 33 1010 1004 13 2 13 0.00
2014-10-21 29.7 20.3 15.6 18.8 16.3 9.8 98 82 31 1005 993 16 2 16 0.00
2014-10-22 23.8 17.2 6.8 17.4 -0.4 -10.3 96 36 16 996 988 26 4 26 0.00
2014-10-23 25.4 13.6 4.1 3.9 -2.3 -5.8 62 36 19 996 990 20 2 20 0.00
2014-10-24 27.4 16.5 9.9 3.5 -0.4 -3.9 61 34 17 1000 993 17 2 17 0.00
2014-10-25 26.0 15.9 9.8 4.9 2.0 -1.6 63 42 21 1004 998 15 3 15 0.00
2014-10-26 22.0 13.4 7.2 6.8 1.9 -0.7 77 49 24 1007 1003 24 4 24 0.00
2014-10-27 21.1 14.5 11.6 2.3 0.3 -1.5 50 39 24 1007 1004 25 6 25 0.00
2014-10-28 21.7 14.3 10.1 3.9 1.0 -1.3 62 42 25 1005 1002 20 4 20 0.00
2014-10-29 20.5 13.9 10.0 10.3 5.8 2.5 86 60 33 1004 1000 7 2 7 0.00
2014-10-30 25.2 14.8 8.7 13.4 5.2 -1.3 95 59 23 1009 1003 10 2 10 0.00
2014-10-31 24.3 12.7 5.0 6.8 0.5 -2.4 77 48 21 1010 1006 16 2 16 0.00
2014-11-1 24.8 12.9 5.4 7.9 2.6 -1.4 86 55 20 1008 1006 13 2 13 0.00
2014-11-2 23.8 13.4 7.2 12.8 7.4 4.8 96 72 31 1007 1004 14 2 14 0.00
2014-11-3 22.0 15.1 9.8 12.5 10.1 6.3 98 75 40 1006 1000 13 3 13 0.00
2014-11-4 22.7 17.9 13.8 15.1 12.1 9.1 89 70 46 1001 988 31 6 31 0.00
2014-11-5 21.3 18.6 15.1 18.1 14.8 12.6 92 79 65 992 985 30 5 30 0.63
2014-11-6 16.2 14.6 13.5 15.1 13.7 13.1 98 94 89 994 990 10 2 10 0.30
2014-11-7 20.2 15.6 12.5 17.4 13.4 10.4 98 88 54 995 990 9 1 9 0.00
2014-11-8 20.8 15.8 12.3 18.9 13.3 11.3 98 86 57 998 994 9 1 9 0.10
2014-11-9 24.4 15.4 10.2 18.7 11.4 6.2 98 80 36 1000 996 14 2 14 0.00
2014-11-10 20.1 16.2 14.6 16.3 14.2 10.2 98 88 66 1001 998 23 5 23 1.17
2014-11-11 19.6 15.7 13.9 14.8 13.1 10.1 98 85 61 1001 992 19 3 19 1.80
2014-11-12 17.8 14.4 13.4 15.7 13.8 13.0 98 96 79 993 988 16 3 16 1.90
2014-11-13 23.9 14.8 12.0 17.6 12.1 7.6 98 86 39 999 989 15 2 15 0.43
2014-11-14 24.1 14.8 10.5 18.5 11.0 5.4 98 82 32 1000 998 17 2 17 0.00
2014-11-15 16.7 14.5 11.8 16.0 13.4 11.4 98 94 82 998 988 17 5 17 2.21
2014-11-16 18.7 12.7 9.2 16.1 10.6 8.3 98 88 55 994 990 16 3 16 0.33
2014-11-17 15.1 11.4 9.2 13.6 10.7 8.9 98 95 77 994 987 13 4 13 2.77
2014-11-18 19.7 12.3 8.0 15.3 8.5 3.2 98 81 37 996 990 26 2 26 0.33
2014-11-19 21.5 13.3 7.8 10.4 6.9 3.3 98 69 32 1007 995 9 2 9 0.20
2014-11-20 21.6 11.7 6.5 15.9 7.9 2.7 98 82 32 1009 1006 11 3 11 0.00
2014-11-21 16.6 12.9 8.9 10.2 8.6 5.8 98 76 50 1008 1005 11 3 11 0.00
2014-11-22 20.4 15.2 12.8 13.6 11.2 9.0 94 78 55 1010 1006 11 3 11 0.00
2014-11-23 20.7 15.2 11.7 14.0 12.0 9.3 98 83 51 1011 1008 11 2 11 0.00
2014-11-24 17.4 14.6 11.9 13.7 12.5 9.9 98 88 63 1010 1006 11 2 11 0.00
2014-11-25 19.9 15.8 14.1 16.9 14.2 13.2 98 90 69 1007 1003 9 2 9 0.97
2014-11-26 19.3 14.9 13.5 17.9 14.0 12.7 98 95 77 1003 999 9 2 9 0.10
2014-11-27 18.6 14.4 13.0 14.9 13.4 12.1 98 94 72 999 996 56 2 56 2.95
2014-11-28 21.9 16.7 14.1 14.2 9.3 4.4 98 65 34 998 994 74 1 74 0.13
2014-11-29 20.9 17.1 14.3 15.4 10.8 7.6 91 67 50 998 995 63 0 63 0.20
2014-11-30 21.0 18.3 16.3 11.7 8.6 5.4 60 53 44 995 988 150 1 150 0.00
2014-12-1 20.7 15.9 11.2 15.1 11.6 8.1 96 77 50 989 984 69 1 69 0.76
2014-12-2 21.9 13.8 10.1 12.1 7.6 2.3 95 70 32 989 986 59 1 59 0.00
2014-12-3 16.1 13.4 10.6 8.9 6.6 3.9 86 65 45 995 988 73 1 73 0.00
2014-12-4 15.5 12.1 10.7 13.9 11.0 8.2 98 93 83 998 994 37 2 37 1.07
2014-12-5 17.8 12.7 10.7 11.4 10.3 7.9 98 87 57 998 996 52 1 52 0.51
2014-12-6 16.9 12.3 10.2 10.7 8.7 6.0 94 80 53 998 994 56 1 56 0.23
2014-12-7 13.9 9.8 5.2 10.8 7.3 4.3 98 85 69 998 996 67 0 67 0.00
2014-12-8 17.8 10.3 4.8 9.4 1.4 -1.8 98 59 28 999 995 167 2 167 0.00
2014-12-9 13.4 9.3 6.4 2.9 -2.6 -5.8 75 44 30 1002 991 16 1 16 0.00
2014-12-10 16.3 8.4 3.1 -2.9 -5.5 -8.9 52 38 24 1005 1002 17 3 17 0.00
2014-12-11 18.2 8.1 1.3 3.1 -1.2 -7.3 91 56 27 1003 998 10 2 10 0.00
2014-12-12 18.0 8.7 2.9 11.9 4.8 2.1 98 80 36 1006 1002 9 1 9 0.00
2014-12-13 18.4 12.3 5.8 9.3 7.6 -1.2 94 74 46 1006 1001 15 3 15 0.00
2014-12-14 16.1 13.0 10.4 9.7 8.1 5.9 92 73 52 1007 1004 13 4 13 0.00
2014-12-15 17.7 13.2 11.4 11.9 9.8 6.2 98 81 50 1005 1000 44 4 44 1.27
2014-12-16 12.4 10.7 9.2 11.2 9.1 6.7 98 90 71 1000 990 7 1 7 1.60
2014-12-17 18.4 11.1 6.6 12.3 7.6 4.1 98 82 41 999 992 38 1 38 0.00
2014-12-18 20.3 11.1 5.5 12.2 5.9 1.0 98 75 31 1008 998 11 1 11 0.00
2014-12-19 19.5 10.6 6.0 10.3 7.4 4.6 98 82 48 1010 1006 11 1 11 0.00
2014-12-20 19.3 12.9 8.5 12.3 10.4 7.4 98 86 51 1008 1005 11 1 11 0.00
2014-12-21 20.1 10.1 4.8 14.8 3.5 -4.3 98 71 23 1016 1006 15 1 15 0.00
2014-12-22 19.3 9.4 3.3 13.1 5.1 -3.6 98 76 42 1016 1014 11 1 11 0.00
2014-12-23 15.2 12.2 10.3 11.3 8.9 3.3 98 82 52 1015 1013 19 0 19 0.00
2014-12-24 16.3 11.9 10.1 10.9 7.4 4.7 90 75 52 1014 1010 7 0 7 0.00
2014-12-25 19.2 11.3 6.1 8.8 5.5 0.1 88 70 33 1010 1002 17 1 17 0.00
2014-12-26 15.5 7.9 1.2 8.4 -2.1 -11.3 96 56 19 1006 1001 21 2 21 0.00
2014-12-27 9.9 4.9 -0.1 8.5 -1.2 -9.0 97 67 38 1006 981 20 2 20 1.78
2014-12-28 11.5 4.7 1.1 4.9 -2.6 -9.3 96 65 28 995 978 32 3 32 0.00
2014-12-29 11.0 3.2 -2.8 -8.2 -11.6 -17.3 50 34 19 1006 994 25 4 25 0.00
2014-12-30 8.7 1.9 -3.4 -8.9 -11.4 -14.6 63 38 24 1012 1006 19 4 19 0.00
2014-12-31 6.0 1.1 -2.7 -7.4 -12.6 -17.9 63 37 21 1012 1006 39 5 39 0.00
2015-1-1 10.0 2.3 -5.2 -6.4 -11.2 -15.6 55 38 21 1016 1010 19 2 19 0.00